createdAt,value
2024-02-18T00:00:00.483Z,51.67
2024-02-18T00:02:29.061Z,51.59
2024-02-18T00:04:55.970Z,51.08
2024-02-18T00:07:24.025Z,51.21
2024-02-18T00:09:52.939Z,51.01
2024-02-18T00:12:20.081Z,51.20
2024-02-18T00:14:46.884Z,51.32
2024-02-18T00:17:13.991Z,51.28
2024-02-18T00:19:40.941Z,51.13
2024-02-18T00:22:07.931Z,50.88
2024-02-18T00:24:34.753Z,50.86
2024-02-18T00:27:01.599Z,50.52
2024-02-18T00:29:28.493Z,51.14
2024-02-18T00:31:55.238Z,51.18
2024-02-18T00:34:23.736Z,51.18
2024-02-18T00:36:51.783Z,50.73
2024-02-18T00:39:18.849Z,50.84
2024-02-18T00:41:45.712Z,50.70
2024-02-18T00:44:12.526Z,50.85
2024-02-18T00:46:46.477Z,50.60
2024-02-18T00:49:19.255Z,50.74
2024-02-18T00:51:46.712Z,50.95
2024-02-18T00:54:13.670Z,50.24
2024-02-18T00:56:40.530Z,50.33
2024-02-18T00:59:07.350Z,50.57
2024-02-18T01:01:34.972Z,50.27
2024-02-18T01:04:02.436Z,50.44
2024-02-18T01:06:29.417Z,50.27
2024-02-18T01:08:56.299Z,50.37
2024-02-18T01:11:23.344Z,50.34
2024-02-18T01:13:50.277Z,50.20
2024-02-18T01:16:17.100Z,50.12
2024-02-18T01:18:45.369Z,50.10
2024-02-18T01:21:12.707Z,50.11
2024-02-18T01:23:39.683Z,50.39
2024-02-18T01:26:06.933Z,50.29
2024-02-18T01:28:34.033Z,50.19
2024-02-18T01:31:01.979Z,50.24
2024-02-18T01:33:29.173Z,50.00
2024-02-18T01:35:55.967Z,49.96
2024-02-18T01:38:23.689Z,50.22
2024-02-18T01:40:50.476Z,49.86
2024-02-18T01:43:19.691Z,49.16
2024-02-18T01:45:51.011Z,49.73
2024-02-18T01:48:20.536Z,49.38
2024-02-18T01:50:48.243Z,49.67
2024-02-18T01:53:15.339Z,49.58
2024-02-18T01:55:44.004Z,49.39
2024-02-18T01:58:12.071Z,49.11
2024-02-18T02:00:40.917Z,49.82
2024-02-18T02:03:09.154Z,49.20
2024-02-18T02:05:40.384Z,49.55
2024-02-18T02:08:07.616Z,49.17
2024-02-18T02:10:35.307Z,49.14
2024-02-18T02:13:02.037Z,49.09
2024-02-18T02:15:29.010Z,48.78
2024-02-18T02:17:55.888Z,49.00
2024-02-18T02:20:22.756Z,48.76
2024-02-18T02:22:49.672Z,49.07
2024-02-18T02:25:17.110Z,48.82
2024-02-18T02:27:50.238Z,48.99
2024-02-18T02:30:16.908Z,48.78
2024-02-18T02:32:43.795Z,48.89
2024-02-18T02:35:10.701Z,48.75
2024-02-18T02:37:37.569Z,48.96
2024-02-18T02:40:05.933Z,48.65
2024-02-18T02:42:34.262Z,49.26
2024-02-18T02:45:01.363Z,48.97
2024-02-18T02:47:28.174Z,48.60
2024-02-18T02:49:55.147Z,48.48
2024-02-18T02:52:22.019Z,48.52
2024-02-18T02:54:48.908Z,48.47
2024-02-18T02:57:15.800Z,48.80
2024-02-18T02:59:42.584Z,48.87
2024-02-18T03:02:09.331Z,48.72
2024-02-18T03:04:36.267Z,48.59
2024-02-18T03:07:03.179Z,48.86
2024-02-18T03:09:29.936Z,48.96
2024-02-18T03:11:56.725Z,48.68
2024-02-18T03:14:23.530Z,49.07
2024-02-18T03:16:50.268Z,48.78
2024-02-18T03:19:17.238Z,48.33
2024-02-18T03:21:44.115Z,48.28
2024-02-18T03:24:11.856Z,48.52
2024-02-18T03:26:38.626Z,48.46
2024-02-18T03:29:06.113Z,48.28
2024-02-18T03:31:32.929Z,48.43
2024-02-18T03:33:59.743Z,48.20
2024-02-18T03:36:26.825Z,48.17
2024-02-18T03:38:53.784Z,48.35
2024-02-18T03:41:20.768Z,47.90
2024-02-18T03:43:47.496Z,48.28
2024-02-18T03:46:14.548Z,48.36
2024-02-18T03:48:41.689Z,48.12
2024-02-18T03:51:08.541Z,47.90
2024-02-18T03:53:35.288Z,48.83
2024-02-18T03:56:02.028Z,48.24
2024-02-18T03:58:28.798Z,48.12
2024-02-18T04:00:55.566Z,47.96
2024-02-18T04:03:22.614Z,47.80
2024-02-18T04:05:49.486Z,48.21
2024-02-18T04:08:16.212Z,47.66
2024-02-18T04:10:43.007Z,47.95
2024-02-18T04:13:09.973Z,48.30
2024-02-18T04:15:36.827Z,47.85
2024-02-18T04:18:04.181Z,47.94
2024-02-18T04:20:30.992Z,48.20
2024-02-18T04:22:57.804Z,48.00
2024-02-18T04:25:24.552Z,47.77
2024-02-18T04:27:51.615Z,48.00
2024-02-18T04:30:18.399Z,47.86
2024-02-18T04:32:45.166Z,47.85
2024-02-18T04:35:12.047Z,47.72
2024-02-18T04:37:38.871Z,47.72
2024-02-18T04:40:06.246Z,47.92
2024-02-18T04:42:33.175Z,47.67
2024-02-18T04:44:59.946Z,47.72
2024-02-18T04:47:27.228Z,47.81
2024-02-18T04:49:54.316Z,47.43
2024-02-18T04:52:21.230Z,47.74
2024-02-18T04:54:48.019Z,47.76
2024-02-18T04:57:15.404Z,47.62
2024-02-18T04:59:42.329Z,47.73
2024-02-18T05:02:09.561Z,47.52
2024-02-18T05:04:36.361Z,47.93
2024-02-18T05:07:03.335Z,47.40
2024-02-18T05:09:30.278Z,47.48
2024-02-18T05:11:57.071Z,47.77
2024-02-18T05:14:23.823Z,48.04
2024-02-18T05:16:50.629Z,47.78
2024-02-18T05:19:18.375Z,47.80
2024-02-18T05:21:45.456Z,47.42
2024-02-18T05:24:13.177Z,47.56
2024-02-18T05:26:40.371Z,47.57
2024-02-18T05:29:07.802Z,47.58
2024-02-18T05:31:36.498Z,47.86
2024-02-18T05:34:03.821Z,47.55
2024-02-18T05:36:31.136Z,47.54
2024-02-18T05:38:57.910Z,47.64
2024-02-18T05:41:24.874Z,47.62
2024-02-18T05:43:51.647Z,47.57
2024-02-18T05:46:18.466Z,47.57
2024-02-18T05:48:46.218Z,47.84
2024-02-18T05:51:13.157Z,47.25
2024-02-18T05:53:39.888Z,47.90
2024-02-18T05:56:08.188Z,47.77
2024-02-18T05:58:35.002Z,47.34
2024-02-18T06:01:02.146Z,47.30
2024-02-18T06:03:29.724Z,47.67
2024-02-18T06:05:57.754Z,47.24
2024-02-18T06:08:27.587Z,47.59
2024-02-18T06:10:54.712Z,47.42
2024-02-18T06:13:21.608Z,47.53
2024-02-18T06:15:48.366Z,47.33
2024-02-18T06:18:15.372Z,47.70
2024-02-18T06:20:42.208Z,47.58
2024-02-18T06:23:09.000Z,47.26
2024-02-18T06:25:38.736Z,46.96
2024-02-18T06:28:09.751Z,47.64
2024-02-18T06:30:38.149Z,47.65
2024-02-18T06:33:06.253Z,47.01
2024-02-18T06:35:33.297Z,47.15
2024-02-18T06:38:00.161Z,47.49
2024-02-18T06:40:26.888Z,47.52
2024-02-18T06:42:53.690Z,47.66
2024-02-18T06:45:20.584Z,47.65
2024-02-18T06:47:49.128Z,47.52
2024-02-18T06:50:17.127Z,47.68
2024-02-18T06:52:43.961Z,47.28
2024-02-18T06:55:11.474Z,47.35
2024-02-18T06:57:38.535Z,47.22
2024-02-18T07:00:05.920Z,47.05
2024-02-18T07:02:32.630Z,46.99
2024-02-18T07:05:01.266Z,46.94
2024-02-18T07:07:28.389Z,47.10
2024-02-18T07:09:55.269Z,46.97
2024-02-18T07:12:22.292Z,47.47
2024-02-18T07:14:49.146Z,47.02
2024-02-18T07:17:21.228Z,47.15
2024-02-18T07:19:48.746Z,47.08
2024-02-18T07:22:16.420Z,46.99
2024-02-18T07:24:44.461Z,47.19
2024-02-18T07:27:11.276Z,47.46
2024-02-18T07:29:38.083Z,47.68
2024-02-18T07:32:05.244Z,46.83
2024-02-18T07:34:33.223Z,47.16
2024-02-18T07:37:00.196Z,47.51
2024-02-18T07:39:28.316Z,47.30
2024-02-18T07:41:55.138Z,47.61
2024-02-18T07:44:21.985Z,47.44
2024-02-18T07:46:49.653Z,47.53
2024-02-18T07:49:17.652Z,47.46
2024-02-18T07:51:44.579Z,47.73
2024-02-18T07:54:11.469Z,47.31
2024-02-18T07:56:49.245Z,47.93
2024-02-18T07:59:18.198Z,47.43
2024-02-18T08:01:46.778Z,47.51
2024-02-18T08:04:13.855Z,47.97
2024-02-18T08:06:43.504Z,47.88
2024-02-18T08:09:11.872Z,48.16
2024-02-18T08:11:39.127Z,48.34
2024-02-18T08:14:05.854Z,48.31
2024-02-18T08:16:32.638Z,48.19
2024-02-18T08:18:59.633Z,48.27
2024-02-18T08:21:26.594Z,48.70
2024-02-18T08:23:53.405Z,48.42
2024-02-18T08:26:27.657Z,48.40
2024-02-18T08:28:54.898Z,48.44
2024-02-18T08:31:22.656Z,48.17
2024-02-18T08:33:50.157Z,48.69
2024-02-18T08:36:17.042Z,48.65
2024-02-18T08:38:44.681Z,48.69
2024-02-18T08:41:12.432Z,48.63
2024-02-18T08:43:43.307Z,48.66
2024-02-18T08:46:10.779Z,48.88
2024-02-18T08:48:38.544Z,48.71
2024-02-18T08:51:07.421Z,48.77
2024-02-18T08:53:34.871Z,48.66
2024-02-18T08:56:01.784Z,48.95
2024-02-18T08:58:28.550Z,49.14
2024-02-18T09:00:55.435Z,49.29
2024-02-18T09:03:22.197Z,49.19
2024-02-18T09:05:49.073Z,49.31
2024-02-18T09:08:15.965Z,49.45
2024-02-18T09:10:42.856Z,49.26
2024-02-18T09:13:09.847Z,49.47
2024-02-18T09:15:36.805Z,50.25
2024-02-18T09:18:03.757Z,49.95
2024-02-18T09:20:30.842Z,49.82
2024-02-18T09:22:57.761Z,49.50
2024-02-18T09:25:24.466Z,49.84
2024-02-18T09:27:51.345Z,49.91
2024-02-18T09:30:18.666Z,49.89
2024-02-18T09:32:46.446Z,49.99
2024-02-18T09:35:14.348Z,49.69
2024-02-18T09:37:41.637Z,49.97
2024-02-18T09:40:10.925Z,49.76
2024-02-18T09:42:42.873Z,49.90
2024-02-18T09:45:15.433Z,49.80
2024-02-18T09:47:45.215Z,50.12
2024-02-18T09:50:12.987Z,50.00
2024-02-18T09:52:44.522Z,50.00
2024-02-18T09:55:13.165Z,50.01
2024-02-18T09:57:40.314Z,50.19
2024-02-18T10:00:09.750Z,50.13
2024-02-18T10:02:40.614Z,49.89
2024-02-18T10:05:12.332Z,50.22
2024-02-18T10:07:39.600Z,50.16
2024-02-18T10:10:09.218Z,49.94
2024-02-18T10:12:36.359Z,49.81
2024-02-18T10:15:05.892Z,49.89
2024-02-18T10:17:33.369Z,49.67
2024-02-18T10:20:00.736Z,49.77
2024-02-18T10:22:27.635Z,49.86
2024-02-18T10:24:55.406Z,49.91
2024-02-18T10:27:23.008Z,50.08
2024-02-18T10:29:50.335Z,49.60
2024-02-18T10:32:17.995Z,49.91
2024-02-18T10:34:49.121Z,49.71
2024-02-18T10:37:37.819Z,49.88
2024-02-18T10:40:40.306Z,49.79
2024-02-18T10:43:11.620Z,49.65
2024-02-18T10:45:41.755Z,50.05
2024-02-18T10:48:11.577Z,50.32
2024-02-18T10:50:44.300Z,50.70
2024-02-18T10:53:41.373Z,50.52
2024-02-18T10:56:35.102Z,50.57
2024-02-18T10:59:11.035Z,50.82
2024-02-18T11:01:44.356Z,51.36
2024-02-18T11:04:12.029Z,50.68
2024-02-18T11:06:39.322Z,50.80
2024-02-18T11:09:12.898Z,50.95
2024-02-18T11:11:42.406Z,51.20
2024-02-18T11:14:10.362Z,51.14
2024-02-18T11:16:39.234Z,50.91
2024-02-18T11:19:07.406Z,51.37
2024-02-18T11:21:34.586Z,51.22
2024-02-18T11:24:01.331Z,51.74
2024-02-18T11:26:28.704Z,51.61
2024-02-18T11:29:01.496Z,52.01
2024-02-18T11:31:30.612Z,51.98
2024-02-18T11:34:00.853Z,51.65
2024-02-18T11:36:28.667Z,51.66
2024-02-18T11:38:57.660Z,51.99
2024-02-18T11:41:29.176Z,52.09
2024-02-18T11:43:57.034Z,52.14
2024-02-18T11:46:26.400Z,52.25
2024-02-18T11:48:54.354Z,51.98
2024-02-18T11:51:27.177Z,52.02
2024-02-18T11:53:56.110Z,51.82
2024-02-18T11:56:22.893Z,51.90
2024-02-18T11:58:51.052Z,52.21
2024-02-18T12:01:20.751Z,52.25
2024-02-18T12:03:48.677Z,52.28
2024-02-18T12:06:15.879Z,52.33
2024-02-18T12:08:42.872Z,52.88
2024-02-18T12:11:09.811Z,52.66
2024-02-18T12:13:36.632Z,52.73
2024-02-18T12:16:05.405Z,52.51
2024-02-18T12:18:32.625Z,52.80
2024-02-18T12:20:59.528Z,52.54
2024-02-18T12:23:27.070Z,52.73
2024-02-18T12:25:55.118Z,52.78
2024-02-18T12:28:22.156Z,53.02
2024-02-18T12:30:50.209Z,53.29
2024-02-18T12:33:17.641Z,53.02
2024-02-18T12:35:45.213Z,53.19
2024-02-18T12:38:12.094Z,53.14
2024-02-18T12:40:41.685Z,52.97
2024-02-18T12:45:44.808Z,53.58
2024-02-18T12:48:17.098Z,53.44
2024-02-18T12:50:44.733Z,53.04
2024-02-18T12:53:11.751Z,52.98
2024-02-18T12:55:39.496Z,53.29
2024-02-18T12:58:07.018Z,53.17
2024-02-18T13:00:34.077Z,53.50
2024-02-18T13:03:03.107Z,53.29
2024-02-18T13:05:30.074Z,53.45
2024-02-18T13:07:58.293Z,53.46
2024-02-18T13:10:25.406Z,53.80
2024-02-18T13:12:52.342Z,53.75
2024-02-18T13:15:19.244Z,54.14
2024-02-18T13:17:51.689Z,53.63
2024-02-18T13:20:19.117Z,53.65
2024-02-18T13:22:48.674Z,53.53
2024-02-18T13:25:15.804Z,53.80
2024-02-18T13:27:43.497Z,53.83
2024-02-18T13:30:10.839Z,53.74
2024-02-18T13:32:38.086Z,53.59
2024-02-18T13:35:05.630Z,53.64
2024-02-18T13:37:32.725Z,54.23
2024-02-18T13:39:59.473Z,53.81
2024-02-18T13:42:26.314Z,53.87
2024-02-18T13:44:53.057Z,53.98
2024-02-18T13:47:22.150Z,54.02
2024-02-18T13:49:49.300Z,54.58
2024-02-18T13:52:16.299Z,54.06
2024-02-18T13:54:43.147Z,54.24
2024-02-18T13:57:10.044Z,54.08
2024-02-18T13:59:37.077Z,53.88
2024-02-18T14:02:05.483Z,54.83
2024-02-18T14:04:32.452Z,53.95
2024-02-18T14:06:59.382Z,53.95
2024-02-18T14:09:26.343Z,54.47
2024-02-18T14:11:53.097Z,54.53
2024-02-18T14:14:19.777Z,54.04
2024-02-18T14:16:48.533Z,54.26
2024-02-18T14:19:17.062Z,54.45
2024-02-18T14:21:45.186Z,54.23
2024-02-18T14:24:12.692Z,54.69
2024-02-18T14:26:39.689Z,54.46
2024-02-18T14:29:06.633Z,54.59
2024-02-18T14:31:33.425Z,54.36
2024-02-18T14:34:00.293Z,54.57
2024-02-18T14:36:27.284Z,54.71
2024-02-18T14:38:56.719Z,54.63
2024-02-18T14:41:24.084Z,54.70
2024-02-18T14:43:50.927Z,54.82
2024-02-18T14:46:17.764Z,54.46
2024-02-18T14:48:44.843Z,55.07
2024-02-18T14:51:13.096Z,54.98
2024-02-18T14:53:50.569Z,54.99
2024-02-18T14:56:21.082Z,54.96
2024-02-18T14:58:48.658Z,54.93
2024-02-18T15:01:15.506Z,54.78
2024-02-18T15:03:42.749Z,54.87
2024-02-18T15:06:09.786Z,54.62
2024-02-18T15:08:36.668Z,54.85
2024-02-18T15:11:03.560Z,54.99
2024-02-18T15:13:30.349Z,55.31
2024-02-18T15:15:57.351Z,55.23
2024-02-18T15:18:24.677Z,55.26
2024-02-18T15:20:52.950Z,55.10
2024-02-18T15:23:20.811Z,55.20
2024-02-18T15:25:52.605Z,55.33
2024-02-18T15:28:19.768Z,55.01
2024-02-18T15:30:47.005Z,55.10
2024-02-18T15:33:13.958Z,55.04
2024-02-18T15:35:41.438Z,55.76
2024-02-18T15:38:08.400Z,55.59
2024-02-18T15:40:35.220Z,55.19
2024-02-18T15:43:02.537Z,55.25
2024-02-18T15:45:29.541Z,55.17
2024-02-18T15:47:57.455Z,55.13
2024-02-18T15:50:24.599Z,55.55
2024-02-18T15:52:51.461Z,55.25
2024-02-18T15:55:20.185Z,55.49
2024-02-18T15:57:47.186Z,55.37
2024-02-18T16:00:15.152Z,55.28
2024-02-18T16:02:41.856Z,55.50
2024-02-18T16:05:08.930Z,55.38
2024-02-18T16:07:35.780Z,55.45
2024-02-18T16:10:02.678Z,55.38
2024-02-18T16:12:29.617Z,55.25
2024-02-18T16:14:56.360Z,55.37
2024-02-18T16:17:25.756Z,55.49
2024-02-18T16:19:54.330Z,55.27
2024-02-18T16:22:21.194Z,55.45
2024-02-18T16:24:48.317Z,55.52
2024-02-18T16:27:15.154Z,55.46
2024-02-18T16:29:41.973Z,55.53
2024-02-18T16:32:11.061Z,55.52
2024-02-18T16:34:37.919Z,55.79
2024-02-18T16:37:05.046Z,55.63
2024-02-18T16:39:36.514Z,55.62
2024-02-18T16:42:04.459Z,55.42
2024-02-18T16:44:31.942Z,55.70
2024-02-18T16:47:01.519Z,55.46
2024-02-18T16:49:28.552Z,55.44
2024-02-18T16:51:57.366Z,55.85
2024-02-18T16:54:24.200Z,55.34
2024-02-18T16:56:51.950Z,56.02
2024-02-18T16:59:19.516Z,55.85
2024-02-18T17:01:50.058Z,55.64
2024-02-18T17:04:17.355Z,55.37
2024-02-18T17:06:44.431Z,55.69
2024-02-18T17:09:13.428Z,55.60
2024-02-18T17:11:40.319Z,55.67
2024-02-18T17:14:07.080Z,55.69
2024-02-18T17:16:37.489Z,55.76
2024-02-18T17:19:08.358Z,55.93
2024-02-18T17:21:35.605Z,55.61
2024-02-18T17:24:03.183Z,55.36
2024-02-18T17:26:30.251Z,55.25
2024-02-18T17:28:57.037Z,55.73
2024-02-18T17:31:26.269Z,55.83
2024-02-18T17:33:56.476Z,55.52
2024-02-18T17:36:24.682Z,55.62
2024-02-18T17:38:51.520Z,55.94
2024-02-18T17:41:18.284Z,55.85
2024-02-18T17:43:45.111Z,55.85
2024-02-18T17:46:12.112Z,55.71
2024-02-18T17:48:39.869Z,55.80
2024-02-18T17:51:07.667Z,56.35
2024-02-18T17:53:34.527Z,55.98
2024-02-18T17:56:01.379Z,55.63
2024-02-18T17:58:29.489Z,56.03
2024-02-18T18:00:56.606Z,55.77
2024-02-18T18:03:24.117Z,56.13
2024-02-18T18:05:50.878Z,56.36
2024-02-18T18:08:17.619Z,56.05
2024-02-18T18:10:44.812Z,55.97
2024-02-18T18:13:11.689Z,55.95
2024-02-18T18:15:38.537Z,56.26
2024-02-18T18:18:05.672Z,55.68
2024-02-18T18:20:32.401Z,55.99
2024-02-18T18:22:59.145Z,55.60
2024-02-18T18:25:25.890Z,55.52
2024-02-18T18:27:52.713Z,55.96
2024-02-18T18:30:19.526Z,56.14
2024-02-18T18:32:46.430Z,55.80
2024-02-18T18:35:13.564Z,55.87
2024-02-18T18:37:40.517Z,55.89
2024-02-18T18:40:09.216Z,55.64
2024-02-18T18:42:37.838Z,55.75
2024-02-18T18:45:08.681Z,55.98
2024-02-18T18:47:36.261Z,56.67
2024-02-18T18:50:05.258Z,55.86
2024-02-18T18:52:32.216Z,55.85
2024-02-18T18:54:59.009Z,55.73
2024-02-18T18:57:25.893Z,55.98
2024-02-18T18:59:52.662Z,55.82
2024-02-18T19:02:19.463Z,55.90
2024-02-18T19:04:46.440Z,55.92
2024-02-18T19:07:13.273Z,56.05
2024-02-18T19:09:40.137Z,55.62
2024-02-18T19:12:07.356Z,55.82
2024-02-18T19:14:34.623Z,55.99
2024-02-18T19:17:01.380Z,55.85
2024-02-18T19:19:28.215Z,56.25
2024-02-18T19:21:58.178Z,55.54
2024-02-18T19:24:26.981Z,55.91
2024-02-18T19:26:53.867Z,56.18
2024-02-18T19:29:21.284Z,55.62
2024-02-18T19:31:48.014Z,55.78
2024-02-18T19:34:14.868Z,55.87
2024-02-18T19:36:44.415Z,55.51
2024-02-18T19:39:11.611Z,55.89
2024-02-18T19:41:42.076Z,55.86
2024-02-18T19:44:09.465Z,55.81
2024-02-18T19:46:43.300Z,55.83
2024-02-18T19:49:11.580Z,55.98
2024-02-18T19:51:38.497Z,55.84
2024-02-18T19:54:05.853Z,56.20
2024-02-18T19:56:32.605Z,56.14
2024-02-18T19:58:59.344Z,55.94
2024-02-18T20:01:26.173Z,55.66
2024-02-18T20:03:53.167Z,56.15
2024-02-18T20:06:20.003Z,55.91
2024-02-18T20:08:46.701Z,55.76
2024-02-18T20:11:13.561Z,55.77
2024-02-18T20:13:40.305Z,56.16
2024-02-18T20:16:07.492Z,55.91
2024-02-18T20:18:37.001Z,55.83
2024-02-18T20:21:05.902Z,56.04
2024-02-18T20:23:32.843Z,56.06
2024-02-18T20:25:59.986Z,56.02
2024-02-18T20:28:26.883Z,56.47
2024-02-18T20:30:53.676Z,55.82
2024-02-18T20:33:20.681Z,55.87
2024-02-18T20:35:47.457Z,56.11
2024-02-18T20:38:14.468Z,56.11
2024-02-18T20:40:42.520Z,55.98
2024-02-18T20:43:09.414Z,56.21
2024-02-18T20:45:36.247Z,56.14
2024-02-18T20:48:04.359Z,56.11
2024-02-18T20:50:31.178Z,55.99
2024-02-18T20:52:59.092Z,55.98
2024-02-18T20:55:26.943Z,56.06
2024-02-18T20:57:53.711Z,55.93
2024-02-18T21:00:21.007Z,56.18
2024-02-18T21:02:47.777Z,55.79
2024-02-18T21:05:14.730Z,56.08
2024-02-18T21:07:41.543Z,55.81
2024-02-18T21:10:08.745Z,56.43
2024-02-18T21:12:35.665Z,56.09
2024-02-18T21:15:02.464Z,55.67
2024-02-18T21:17:29.428Z,55.88
2024-02-18T21:19:56.431Z,55.64
2024-02-18T21:22:23.436Z,56.11
2024-02-18T21:24:50.372Z,55.97
2024-02-18T21:27:17.179Z,56.05
2024-02-18T21:29:44.041Z,55.94
2024-02-18T21:32:12.013Z,56.37
2024-02-18T21:34:39.356Z,55.95
2024-02-18T21:37:06.168Z,55.89
2024-02-18T21:39:41.026Z,55.78
2024-02-18T21:42:14.839Z,56.00
2024-02-18T21:44:41.680Z,56.19
2024-02-18T21:47:08.422Z,56.13
2024-02-18T21:49:36.334Z,56.39
2024-02-18T21:52:04.093Z,55.91
2024-02-18T21:54:31.239Z,55.84
2024-02-18T21:56:58.193Z,56.30
2024-02-18T21:59:25.173Z,55.96
2024-02-18T22:01:53.455Z,56.41
2024-02-18T22:04:20.987Z,56.12
2024-02-18T22:07:00.592Z,55.90
2024-02-18T22:09:34.742Z,56.15
2024-02-18T22:12:01.476Z,55.77
2024-02-18T22:14:28.232Z,56.26
2024-02-18T22:16:54.977Z,56.22
2024-02-18T22:19:21.901Z,55.91
2024-02-18T22:21:48.801Z,56.08
2024-02-18T22:24:15.602Z,55.84
2024-02-18T22:26:42.428Z,55.42
2024-02-18T22:29:09.260Z,55.96
2024-02-18T22:31:35.968Z,56.72
2024-02-18T22:34:02.904Z,55.96
2024-02-18T22:36:29.904Z,56.35
2024-02-18T22:38:57.387Z,56.06
2024-02-18T22:41:24.108Z,55.77
2024-02-18T22:43:50.821Z,56.38
2024-02-18T22:46:17.626Z,56.27
2024-02-18T22:48:44.575Z,55.91
2024-02-18T22:51:11.395Z,56.35
2024-02-18T22:53:42.133Z,56.04
2024-02-18T22:56:09.540Z,56.03
2024-02-18T22:58:36.916Z,55.98
2024-02-18T23:01:04.108Z,56.14
2024-02-18T23:03:31.160Z,56.15
2024-02-18T23:05:58.046Z,56.38
2024-02-18T23:08:25.230Z,56.28
2024-02-18T23:10:52.357Z,56.17
2024-02-18T23:13:19.467Z,55.96
2024-02-18T23:15:46.381Z,56.01
2024-02-18T23:18:13.198Z,56.05
2024-02-18T23:20:40.469Z,56.48
2024-02-18T23:23:07.978Z,56.85
2024-02-18T23:25:34.919Z,56.31
2024-02-18T23:28:01.726Z,56.35
2024-02-18T23:30:28.517Z,55.99
2024-02-18T23:32:55.765Z,56.52
2024-02-18T23:35:25.236Z,56.61
2024-02-18T23:37:51.997Z,55.81
2024-02-18T23:40:19.131Z,56.22
2024-02-18T23:42:46.032Z,56.55
2024-02-18T23:45:12.845Z,56.64
2024-02-18T23:47:39.690Z,56.62
2024-02-18T23:50:07.231Z,56.73
2024-02-18T23:52:33.793Z,56.47
2024-02-18T23:55:00.668Z,56.72
2024-02-18T23:57:27.948Z,56.45
2024-02-18T23:59:54.799Z,56.38
